Overview Statistics Trail Chart Weather Telemetry Raw packets
 

This is the latest recevied weather packets stored in our database for station/object OM4MO-10. If no packets are shown the sender has not sent any weather packets the latest 10 day(s).

<< 18 19 20 21 22 23 24 >>
Time Temp. Humidity Pressure Rain* Wind** Luminosity Snow
1788236785 13.89° C 79% 1020.2 hPa - - - -
1788235885 13.89° C 79% 1020.1 hPa - - - -
1788234984 13.89° C 79% 1019.8 hPa - - - -
1788234084 21.67° C 79% 754.7 hPa - - - -
1788233184 14.44° C 79% 1019.9 hPa - - - -
1788232284 21.67° C 79% 754.7 hPa - - - -
1788231383 15° C 79% 1019.4 hPa - - - -
1788230483 21.67° C 79% 754.7 hPa - - - -
1788229581 21.67° C 79% 754.7 hPa - - - -
1788228680 16.11° C 79% 1019.8 hPa - - - -
1788227780 16.11° C 79% 1019.6 hPa - - - -
1788226880 16.67° C 79% 1019.5 hPa - - - -
1788225980 16.11° C 79% 1019.3 hPa - - - -
1788225080 16.67° C 79% 1019.5 hPa - - - -
1788224180 21.67° C 79% 754.7 hPa - - - -
1788223280 16.11° C 79% 1019.6 hPa - - - -
1788222379 16.11° C 79% 1019.4 hPa - - - -
1788221479 16.67° C 79% 1019.6 hPa - - - -
1788220579 16.11° C 79% 1019.6 hPa - - - -
1788219679 21.67° C 79% 754.7 hPa - - - -
1788218779 16.11° C 79% 1019.5 hPa - - - -
1788217879 15.56° C 79% 1018.8 hPa - - - -
1788216979 21.67° C 79% 754.7 hPa - - - -
1788216077 21.67° C 79% 754.7 hPa - - - -
1788215176 15° C 79% 1017.6 hPa - - - -

* Rain since midnight (hover to see other rain measurements)
** Current wind speed in m/s (hover to see current wind gust speed)